sensor_id;sensor_type;location;lat;lon;timestamp;P1;durP1;ratioP1;P2;durP2;ratioP2
17618;SDS011;8928;51.678;6.074;2023-03-04T00:00:44;18.17;;;2.80;;
17618;SDS011;8928;51.678;6.074;2023-03-04T00:03:32;26.90;;;3.60;;
17618;SDS011;8928;51.678;6.074;2023-03-04T00:06:19;31.60;;;2.90;;
17618;SDS011;8928;51.678;6.074;2023-03-04T00:09:06;23.23;;;2.57;;
17618;SDS011;8928;51.678;6.074;2023-03-04T00:11:53;24.60;;;2.83;;
17618;SDS011;8928;51.678;6.074;2023-03-04T00:14:41;23.57;;;2.90;;
17618;SDS011;8928;51.678;6.074;2023-03-04T00:17:28;20.50;;;2.83;;
17618;SDS011;8928;51.678;6.074;2023-03-04T00:20:16;24.87;;;3.10;;
17618;SDS011;8928;51.678;6.074;2023-03-04T00:23:03;17.47;;;2.90;;
17618;SDS011;8928;51.678;6.074;2023-03-04T00:25:50;22.43;;;2.87;;
17618;SDS011;8928;51.678;6.074;2023-03-04T00:28:37;24.33;;;3.67;;
17618;SDS011;8928;51.678;6.074;2023-03-04T00:31:25;24.90;;;3.10;;
17618;SDS011;8928;51.678;6.074;2023-03-04T00:34:13;23.53;;;2.77;;
17618;SDS011;8928;51.678;6.074;2023-03-04T00:37:00;24.20;;;2.77;;
17618;SDS011;8928;51.678;6.074;2023-03-04T00:39:48;16.50;;;2.30;;
17618;SDS011;8928;51.678;6.074;2023-03-04T00:42:35;22.67;;;2.63;;
17618;SDS011;8928;51.678;6.074;2023-03-04T00:45:22;15.47;;;2.43;;
17618;SDS011;8928;51.678;6.074;2023-03-04T00:48:10;16.13;;;2.30;;
17618;SDS011;8928;51.678;6.074;2023-03-04T00:50:57;17.70;;;2.30;;
17618;SDS011;8928;51.678;6.074;2023-03-04T00:53:44;20.40;;;2.40;;
17618;SDS011;8928;51.678;6.074;2023-03-04T00:56:32;18.07;;;2.60;;
17618;SDS011;8928;51.678;6.074;2023-03-04T00:59:19;15.90;;;2.47;;
17618;SDS011;8928;51.678;6.074;2023-03-04T01:02:06;20.30;;;2.63;;
17618;SDS011;8928;51.678;6.074;2023-03-04T01:04:54;23.97;;;2.80;;
17618;SDS011;8928;51.678;6.074;2023-03-04T01:07:41;20.50;;;2.70;;
17618;SDS011;8928;51.678;6.074;2023-03-04T01:10:29;22.73;;;2.90;;
17618;SDS011;8928;51.678;6.074;2023-03-04T01:13:17;21.00;;;2.80;;
17618;SDS011;8928;51.678;6.074;2023-03-04T01:16:04;26.30;;;2.93;;
17618;SDS011;8928;51.678;6.074;2023-03-04T01:18:52;17.17;;;2.53;;
17618;SDS011;8928;51.678;6.074;2023-03-04T01:21:41;27.47;;;2.80;;
17618;SDS011;8928;51.678;6.074;2023-03-04T01:24:28;23.17;;;2.53;;
17618;SDS011;8928;51.678;6.074;2023-03-04T01:27:15;18.07;;;2.23;;
17618;SDS011;8928;51.678;6.074;2023-03-04T01:30:02;24.73;;;2.73;;
17618;SDS011;8928;51.678;6.074;2023-03-04T01:32:50;22.80;;;2.60;;
17618;SDS011;8928;51.678;6.074;2023-03-04T01:35:37;21.53;;;2.70;;
17618;SDS011;8928;51.678;6.074;2023-03-04T01:38:25;17.93;;;2.53;;
17618;SDS011;8928;51.678;6.074;2023-03-04T01:41:13;25.33;;;4.13;;
17618;SDS011;8928;51.678;6.074;2023-03-04T01:44:02;24.67;;;2.90;;
17618;SDS011;8928;51.678;6.074;2023-03-04T01:46:51;17.07;;;3.10;;
17618;SDS011;8928;51.678;6.074;2023-03-04T01:49:39;22.33;;;2.80;;
17618;SDS011;8928;51.678;6.074;2023-03-04T01:52:27;19.67;;;2.87;;
17618;SDS011;8928;51.678;6.074;2023-03-04T01:55:16;25.93;;;2.70;;
17618;SDS011;8928;51.678;6.074;2023-03-04T01:58:05;23.97;;;2.90;;
17618;SDS011;8928;51.678;6.074;2023-03-04T02:00:55;20.10;;;2.73;;
17618;SDS011;8928;51.678;6.074;2023-03-04T02:03:42;15.33;;;2.37;;
17618;SDS011;8928;51.678;6.074;2023-03-04T02:06:30;20.30;;;2.47;;
17618;SDS011;8928;51.678;6.074;2023-03-04T02:09:17;19.30;;;2.60;;
17618;SDS011;8928;51.678;6.074;2023-03-04T02:12:06;18.03;;;2.40;;
17618;SDS011;8928;51.678;6.074;2023-03-04T02:14:53;15.43;;;2.30;;
17618;SDS011;8928;51.678;6.074;2023-03-04T02:17:41;13.77;;;2.40;;
17618;SDS011;8928;51.678;6.074;2023-03-04T02:20:31;16.83;;;2.10;;
17618;SDS011;8928;51.678;6.074;2023-03-04T02:23:24;14.70;;;2.20;;
17618;SDS011;8928;51.678;6.074;2023-03-04T02:26:16;14.47;;;2.43;;
17618;SDS011;8928;51.678;6.074;2023-03-04T02:29:04;19.43;;;2.60;;
17618;SDS011;8928;51.678;6.074;2023-03-04T02:31:52;17.83;;;2.37;;
17618;SDS011;8928;51.678;6.074;2023-03-04T02:34:44;17.33;;;2.20;;
17618;SDS011;8928;51.678;6.074;2023-03-04T02:37:33;17.77;;;2.20;;
17618;SDS011;8928;51.678;6.074;2023-03-04T02:40:20;11.23;;;1.83;;
17618;SDS011;8928;51.678;6.074;2023-03-04T02:43:13;17.70;;;2.50;;
17618;SDS011;8928;51.678;6.074;2023-03-04T02:46:01;28.53;;;2.80;;
17618;SDS011;8928;51.678;6.074;2023-03-04T02:48:48;25.10;;;2.37;;
17618;SDS011;8928;51.678;6.074;2023-03-04T02:51:35;19.73;;;2.57;;
17618;SDS011;8928;51.678;6.074;2023-03-04T02:54:22;19.67;;;2.30;;
17618;SDS011;8928;51.678;6.074;2023-03-04T02:57:10;15.13;;;2.30;;
17618;SDS011;8928;51.678;6.074;2023-03-04T02:59:59;17.97;;;2.40;;
17618;SDS011;8928;51.678;6.074;2023-03-04T03:02:46;17.93;;;2.70;;
17618;SDS011;8928;51.678;6.074;2023-03-04T03:05:33;16.00;;;2.23;;
17618;SDS011;8928;51.678;6.074;2023-03-04T03:08:21;15.03;;;2.13;;
17618;SDS011;8928;51.678;6.074;2023-03-04T03:11:08;15.23;;;1.97;;
17618;SDS011;8928;51.678;6.074;2023-03-04T03:13:55;15.97;;;2.00;;
17618;SDS011;8928;51.678;6.074;2023-03-04T03:16:44;17.90;;;2.43;;
17618;SDS011;8928;51.678;6.074;2023-03-04T03:19:31;16.67;;;1.80;;
17618;SDS011;8928;51.678;6.074;2023-03-04T03:22:18;13.60;;;1.97;;
17618;SDS011;8928;51.678;6.074;2023-03-04T03:25:05;16.37;;;1.83;;
17618;SDS011;8928;51.678;6.074;2023-03-04T03:27:54;15.20;;;2.00;;
17618;SDS011;8928;51.678;6.074;2023-03-04T03:30:41;21.00;;;2.30;;
17618;SDS011;8928;51.678;6.074;2023-03-04T03:33:29;19.07;;;1.93;;
17618;SDS011;8928;51.678;6.074;2023-03-04T03:36:16;14.17;;;2.30;;
17618;SDS011;8928;51.678;6.074;2023-03-04T03:39:03;18.10;;;2.30;;
17618;SDS011;8928;51.678;6.074;2023-03-04T03:41:50;13.20;;;2.17;;
17618;SDS011;8928;51.678;6.074;2023-03-04T03:44:37;14.60;;;2.20;;
17618;SDS011;8928;51.678;6.074;2023-03-04T03:47:24;15.23;;;2.23;;
17618;SDS011;8928;51.678;6.074;2023-03-04T03:50:14;19.90;;;1.90;;
17618;SDS011;8928;51.678;6.074;2023-03-04T03:53:02;15.40;;;2.00;;
17618;SDS011;8928;51.678;6.074;2023-03-04T03:55:49;18.13;;;2.30;;
17618;SDS011;8928;51.678;6.074;2023-03-04T03:58:36;22.83;;;2.30;;
17618;SDS011;8928;51.678;6.074;2023-03-04T04:01:23;10.63;;;1.80;;
17618;SDS011;8928;51.678;6.074;2023-03-04T04:04:10;20.53;;;2.10;;
17618;SDS011;8928;51.678;6.074;2023-03-04T04:06:58;18.93;;;2.57;;
17618;SDS011;8928;51.678;6.074;2023-03-04T04:09:45;16.97;;;1.93;;
17618;SDS011;8928;51.678;6.074;2023-03-04T04:12:32;13.13;;;1.63;;
17618;SDS011;8928;51.678;6.074;2023-03-04T04:15:20;12.43;;;1.80;;
17618;SDS011;8928;51.678;6.074;2023-03-04T04:18:07;15.27;;;1.97;;
17618;SDS011;8928;51.678;6.074;2023-03-04T04:20:54;14.47;;;2.43;;
17618;SDS011;8928;51.678;6.074;2023-03-04T04:23:43;12.70;;;1.90;;
17618;SDS011;8928;51.678;6.074;2023-03-04T04:26:30;15.83;;;1.70;;
17618;SDS011;8928;51.678;6.074;2023-03-04T04:29:17;19.37;;;2.00;;
17618;SDS011;8928;51.678;6.074;2023-03-04T04:32:04;11.70;;;2.00;;
17618;SDS011;8928;51.678;6.074;2023-03-04T04:34:51;14.70;;;1.63;;
17618;SDS011;8928;51.678;6.074;2023-03-04T04:37:38;16.03;;;1.67;;
17618;SDS011;8928;51.678;6.074;2023-03-04T04:40:27;13.10;;;1.50;;
17618;SDS011;8928;51.678;6.074;2023-03-04T04:43:14;14.40;;;1.60;;
17618;SDS011;8928;51.678;6.074;2023-03-04T04:46:01;16.13;;;1.83;;
17618;SDS011;8928;51.678;6.074;2023-03-04T04:48:48;10.37;;;1.60;;
17618;SDS011;8928;51.678;6.074;2023-03-04T04:51:36;13.13;;;1.87;;
17618;SDS011;8928;51.678;6.074;2023-03-04T04:54:24;15.97;;;1.70;;
17618;SDS011;8928;51.678;6.074;2023-03-04T04:57:12;13.47;;;1.70;;
17618;SDS011;8928;51.678;6.074;2023-03-04T04:59:59;10.83;;;1.53;;
17618;SDS011;8928;51.678;6.074;2023-03-04T05:02:47;17.53;;;1.97;;
17618;SDS011;8928;51.678;6.074;2023-03-04T05:05:34;14.17;;;1.70;;
17618;SDS011;8928;51.678;6.074;2023-03-04T05:08:21;17.63;;;2.20;;
17618;SDS011;8928;51.678;6.074;2023-03-04T05:11:08;14.70;;;1.83;;
17618;SDS011;8928;51.678;6.074;2023-03-04T05:13:56;15.00;;;1.90;;
17618;SDS011;8928;51.678;6.074;2023-03-04T05:16:43;16.50;;;1.87;;
17618;SDS011;8928;51.678;6.074;2023-03-04T05:19:30;19.37;;;1.80;;
17618;SDS011;8928;51.678;6.074;2023-03-04T05:22:17;14.87;;;2.00;;
17618;SDS011;8928;51.678;6.074;2023-03-04T05:25:04;15.23;;;1.90;;
17618;SDS011;8928;51.678;6.074;2023-03-04T05:27:52;18.93;;;1.53;;
17618;SDS011;8928;51.678;6.074;2023-03-04T05:30:41;15.63;;;1.60;;
17618;SDS011;8928;51.678;6.074;2023-03-04T05:33:29;12.57;;;1.87;;
17618;SDS011;8928;51.678;6.074;2023-03-04T05:36:16;15.60;;;1.60;;
17618;SDS011;8928;51.678;6.074;2023-03-04T05:39:03;12.10;;;1.40;;
17618;SDS011;8928;51.678;6.074;2023-03-04T05:41:50;12.83;;;1.50;;
17618;SDS011;8928;51.678;6.074;2023-03-04T05:44:37;11.53;;;1.57;;
17618;SDS011;8928;51.678;6.074;2023-03-04T05:47:26;15.00;;;1.50;;
17618;SDS011;8928;51.678;6.074;2023-03-04T05:50:13;14.80;;;1.43;;
17618;SDS011;8928;51.678;6.074;2023-03-04T05:53:00;15.27;;;1.90;;
17618;SDS011;8928;51.678;6.074;2023-03-04T05:55:47;14.33;;;1.57;;
17618;SDS011;8928;51.678;6.074;2023-03-04T05:58:35;9.83;;;1.73;;
17618;SDS011;8928;51.678;6.074;2023-03-04T06:01:22;10.57;;;1.50;;
17618;SDS011;8928;51.678;6.074;2023-03-04T06:04:10;14.90;;;1.87;;
17618;SDS011;8928;51.678;6.074;2023-03-04T06:06:57;13.37;;;1.83;;
17618;SDS011;8928;51.678;6.074;2023-03-04T06:09:44;12.97;;;1.70;;
17618;SDS011;8928;51.678;6.074;2023-03-04T06:12:31;16.27;;;1.67;;
17618;SDS011;8928;51.678;6.074;2023-03-04T06:15:19;16.73;;;1.80;;
17618;SDS011;8928;51.678;6.074;2023-03-04T06:18:06;10.33;;;2.13;;
17618;SDS011;8928;51.678;6.074;2023-03-04T06:20:56;9.67;;;1.50;;
17618;SDS011;8928;51.678;6.074;2023-03-04T06:23:43;12.53;;;1.80;;
17618;SDS011;8928;51.678;6.074;2023-03-04T06:26:31;13.10;;;2.03;;
17618;SDS011;8928;51.678;6.074;2023-03-04T06:29:18;11.83;;;1.70;;
17618;SDS011;8928;51.678;6.074;2023-03-04T06:32:05;8.87;;;1.50;;
17618;SDS011;8928;51.678;6.074;2023-03-04T06:34:52;12.03;;;1.67;;
17618;SDS011;8928;51.678;6.074;2023-03-04T06:37:41;14.63;;;2.10;;
17618;SDS011;8928;51.678;6.074;2023-03-04T06:40:28;15.27;;;1.97;;
17618;SDS011;8928;51.678;6.074;2023-03-04T06:43:15;16.17;;;1.73;;
17618;SDS011;8928;51.678;6.074;2023-03-04T06:46:02;19.73;;;3.30;;
17618;SDS011;8928;51.678;6.074;2023-03-04T06:48:49;17.27;;;2.50;;
17618;SDS011;8928;51.678;6.074;2023-03-04T06:51:36;10.80;;;3.17;;
17618;SDS011;8928;51.678;6.074;2023-03-04T06:54:25;13.43;;;2.80;;
17618;SDS011;8928;51.678;6.074;2023-03-04T06:57:12;13.80;;;3.57;;
17618;SDS011;8928;51.678;6.074;2023-03-04T06:59:59;13.40;;;1.90;;
17618;SDS011;8928;51.678;6.074;2023-03-04T07:02:47;10.27;;;2.70;;
17618;SDS011;8928;51.678;6.074;2023-03-04T07:05:34;14.93;;;2.60;;
17618;SDS011;8928;51.678;6.074;2023-03-04T07:08:21;22.73;;;2.80;;
17618;SDS011;8928;51.678;6.074;2023-03-04T07:11:10;13.53;;;1.50;;
17618;SDS011;8928;51.678;6.074;2023-03-04T07:13:57;16.47;;;1.83;;
17618;SDS011;8928;51.678;6.074;2023-03-04T07:16:44;10.67;;;1.50;;
17618;SDS011;8928;51.678;6.074;2023-03-04T07:19:31;15.77;;;1.57;;
17618;SDS011;8928;51.678;6.074;2023-03-04T07:22:18;11.87;;;1.67;;
17618;SDS011;8928;51.678;6.074;2023-03-04T07:25:05;7.53;;;1.60;;
17618;SDS011;8928;51.678;6.074;2023-03-04T07:27:54;11.80;;;1.70;;
17618;SDS011;8928;51.678;6.074;2023-03-04T07:30:41;11.73;;;1.80;;
17618;SDS011;8928;51.678;6.074;2023-03-04T07:33:29;10.33;;;1.90;;
17618;SDS011;8928;51.678;6.074;2023-03-04T07:36:16;15.40;;;1.83;;
17618;SDS011;8928;51.678;6.074;2023-03-04T07:39:05;12.03;;;1.70;;
17618;SDS011;8928;51.678;6.074;2023-03-04T07:41:52;9.37;;;1.57;;
17618;SDS011;8928;51.678;6.074;2023-03-04T07:44:41;13.00;;;1.70;;
17618;SDS011;8928;51.678;6.074;2023-03-04T07:47:28;13.57;;;1.80;;
17618;SDS011;8928;51.678;6.074;2023-03-04T07:50:15;11.47;;;1.70;;
17618;SDS011;8928;51.678;6.074;2023-03-04T07:53:02;11.03;;;1.67;;
17618;SDS011;8928;51.678;6.074;2023-03-04T07:55:50;9.87;;;1.50;;
17618;SDS011;8928;51.678;6.074;2023-03-04T07:58:37;13.40;;;1.83;;
17618;SDS011;8928;51.678;6.074;2023-03-04T08:01:25;9.10;;;1.50;;
17618;SDS011;8928;51.678;6.074;2023-03-04T08:04:13;13.97;;;1.73;;
17618;SDS011;8928;51.678;6.074;2023-03-04T08:07:00;9.73;;;1.57;;
17618;SDS011;8928;51.678;6.074;2023-03-04T08:09:47;16.57;;;1.70;;
17618;SDS011;8928;51.678;6.074;2023-03-04T08:12:35;11.70;;;2.07;;
17618;SDS011;8928;51.678;6.074;2023-03-04T08:15:22;15.70;;;2.10;;
17618;SDS011;8928;51.678;6.074;2023-03-04T08:18:10;7.83;;;1.87;;
17618;SDS011;8928;51.678;6.074;2023-03-04T08:20:58;13.60;;;1.83;;
17618;SDS011;8928;51.678;6.074;2023-03-04T08:23:45;13.23;;;1.77;;
17618;SDS011;8928;51.678;6.074;2023-03-04T08:26:34;10.47;;;1.70;;
17618;SDS011;8928;51.678;6.074;2023-03-04T08:29:25;16.67;;;2.10;;
17618;SDS011;8928;51.678;6.074;2023-03-04T08:32:12;10.90;;;1.47;;
17618;SDS011;8928;51.678;6.074;2023-03-04T08:35:01;12.33;;;1.63;;
17618;SDS011;8928;51.678;6.074;2023-03-04T08:37:48;14.93;;;1.70;;
17618;SDS011;8928;51.678;6.074;2023-03-04T08:40:35;11.27;;;2.00;;
17618;SDS011;8928;51.678;6.074;2023-03-04T08:43:23;11.43;;;1.60;;
17618;SDS011;8928;51.678;6.074;2023-03-04T08:46:10;13.33;;;1.90;;
17618;SDS011;8928;51.678;6.074;2023-03-04T08:48:58;14.47;;;1.80;;
17618;SDS011;8928;51.678;6.074;2023-03-04T08:51:46;10.80;;;1.70;;
17618;SDS011;8928;51.678;6.074;2023-03-04T08:54:33;15.03;;;1.70;;
17618;SDS011;8928;51.678;6.074;2023-03-04T08:57:20;15.97;;;2.13;;
17618;SDS011;8928;51.678;6.074;2023-03-04T09:00:07;8.07;;;1.77;;
17618;SDS011;8928;51.678;6.074;2023-03-04T09:02:56;9.10;;;1.60;;
17618;SDS011;8928;51.678;6.074;2023-03-04T09:05:43;7.13;;;1.53;;
17618;SDS011;8928;51.678;6.074;2023-03-04T09:08:32;12.87;;;2.10;;
17618;SDS011;8928;51.678;6.074;2023-03-04T09:11:19;11.67;;;1.50;;
17618;SDS011;8928;51.678;6.074;2023-03-04T09:14:06;9.57;;;1.70;;
17618;SDS011;8928;51.678;6.074;2023-03-04T09:16:53;8.83;;;1.80;;
17618;SDS011;8928;51.678;6.074;2023-03-04T09:19:40;7.60;;;1.60;;
17618;SDS011;8928;51.678;6.074;2023-03-04T09:22:27;10.37;;;1.70;;
17618;SDS011;8928;51.678;6.074;2023-03-04T09:25:16;11.03;;;1.80;;
17618;SDS011;8928;51.678;6.074;2023-03-04T09:28:03;11.07;;;1.50;;
17618;SDS011;8928;51.678;6.074;2023-03-04T09:30:51;9.90;;;1.60;;
17618;SDS011;8928;51.678;6.074;2023-03-04T09:33:38;10.93;;;1.80;;
17618;SDS011;8928;51.678;6.074;2023-03-04T09:36:27;9.60;;;1.60;;
17618;SDS011;8928;51.678;6.074;2023-03-04T09:39:14;9.77;;;1.60;;
17618;SDS011;8928;51.678;6.074;2023-03-04T09:42:03;8.47;;;1.50;;
17618;SDS011;8928;51.678;6.074;2023-03-04T09:44:51;7.57;;;1.40;;
17618;SDS011;8928;51.678;6.074;2023-03-04T09:47:39;8.93;;;1.40;;
17618;SDS011;8928;51.678;6.074;2023-03-04T09:50:27;9.83;;;1.67;;
17618;SDS011;8928;51.678;6.074;2023-03-04T09:53:20;14.07;;;1.90;;
17618;SDS011;8928;51.678;6.074;2023-03-04T09:56:11;6.97;;;1.60;;
17618;SDS011;8928;51.678;6.074;2023-03-04T09:59:02;7.80;;;1.50;;
17618;SDS011;8928;51.678;6.074;2023-03-04T10:01:57;5.80;;;1.20;;
17618;SDS011;8928;51.678;6.074;2023-03-04T10:04:46;13.13;;;2.13;;
17618;SDS011;8928;51.678;6.074;2023-03-04T10:07:36;9.03;;;1.50;;
17618;SDS011;8928;51.678;6.074;2023-03-04T10:10:28;5.87;;;1.80;;
17618;SDS011;8928;51.678;6.074;2023-03-04T10:13:20;4.30;;;1.30;;
17618;SDS011;8928;51.678;6.074;2023-03-04T10:16:19;8.13;;;1.50;;
17618;SDS011;8928;51.678;6.074;2023-03-04T10:19:22;8.57;;;1.80;;
17618;SDS011;8928;51.678;6.074;2023-03-04T10:22:16;9.90;;;2.30;;
17618;SDS011;8928;51.678;6.074;2023-03-04T10:25:16;6.40;;;1.50;;
17618;SDS011;8928;51.678;6.074;2023-03-04T10:28:08;9.00;;;1.70;;
17618;SDS011;8928;51.678;6.074;2023-03-04T10:31:02;7.27;;;1.30;;
17618;SDS011;8928;51.678;6.074;2023-03-04T10:33:56;6.97;;;1.77;;
17618;SDS011;8928;51.678;6.074;2023-03-04T10:36:45;8.73;;;1.60;;
17618;SDS011;8928;51.678;6.074;2023-03-04T10:39:39;5.10;;;1.67;;
17618;SDS011;8928;51.678;6.074;2023-03-04T10:42:28;6.17;;;1.57;;
17618;SDS011;8928;51.678;6.074;2023-03-04T10:45:24;11.50;;;1.80;;
17618;SDS011;8928;51.678;6.074;2023-03-04T10:48:19;10.30;;;1.67;;
17618;SDS011;8928;51.678;6.074;2023-03-04T10:51:17;4.97;;;1.60;;
17618;SDS011;8928;51.678;6.074;2023-03-04T10:54:06;5.87;;;1.80;;
17618;SDS011;8928;51.678;6.074;2023-03-04T10:56:57;10.93;;;1.50;;
17618;SDS011;8928;51.678;6.074;2023-03-04T10:59:45;6.37;;;1.40;;
17618;SDS011;8928;51.678;6.074;2023-03-04T11:02:35;7.23;;;1.60;;
17618;SDS011;8928;51.678;6.074;2023-03-04T11:05:23;8.87;;;2.00;;
17618;SDS011;8928;51.678;6.074;2023-03-04T11:08:16;9.03;;;1.60;;
17618;SDS011;8928;51.678;6.074;2023-03-04T11:11:09;9.20;;;1.70;;
17618;SDS011;8928;51.678;6.074;2023-03-04T11:14:20;7.43;;;1.37;;
17618;SDS011;8928;51.678;6.074;2023-03-04T11:17:17;4.90;;;1.17;;
17618;SDS011;8928;51.678;6.074;2023-03-04T11:20:12;6.27;;;1.10;;
17618;SDS011;8928;51.678;6.074;2023-03-04T11:23:04;5.37;;;1.50;;
17618;SDS011;8928;51.678;6.074;2023-03-04T11:25:58;4.10;;;0.70;;
17618;SDS011;8928;51.678;6.074;2023-03-04T11:28:49;3.60;;;0.90;;
17618;SDS011;8928;51.678;6.074;2023-03-04T11:31:42;3.83;;;1.07;;
17618;SDS011;8928;51.678;6.074;2023-03-04T11:34:36;5.20;;;1.87;;
17618;SDS011;8928;51.678;6.074;2023-03-04T11:37:29;3.90;;;0.90;;
17618;SDS011;8928;51.678;6.074;2023-03-04T11:40:22;6.00;;;1.77;;
17618;SDS011;8928;51.678;6.074;2023-03-04T11:43:13;6.10;;;1.30;;
17618;SDS011;8928;51.678;6.074;2023-03-04T11:46:08;6.63;;;1.10;;
17618;SDS011;8928;51.678;6.074;2023-03-04T11:49:15;3.87;;;1.97;;
17618;SDS011;8928;51.678;6.074;2023-03-04T11:52:22;4.17;;;1.37;;
17618;SDS011;8928;51.678;6.074;2023-03-04T11:55:25;5.30;;;1.40;;
17618;SDS011;8928;51.678;6.074;2023-03-04T12:01:34;3.40;;;0.90;;
17618;SDS011;8928;51.678;6.074;2023-03-04T12:04:34;8.10;;;2.43;;
17618;SDS011;8928;51.678;6.074;2023-03-04T12:07:42;10.53;;;3.90;;
17618;SDS011;8928;51.678;6.074;2023-03-04T12:10:41;3.53;;;1.17;;
17618;SDS011;8928;51.678;6.074;2023-03-04T12:13:36;11.43;;;3.50;;
17618;SDS011;8928;51.678;6.074;2023-03-04T12:16:43;4.33;;;1.50;;
17618;SDS011;8928;51.678;6.074;2023-03-04T12:19:46;4.33;;;1.10;;
17618;SDS011;8928;51.678;6.074;2023-03-04T12:22:50;5.43;;;2.00;;
17618;SDS011;8928;51.678;6.074;2023-03-04T12:25:40;4.07;;;1.97;;
17618;SDS011;8928;51.678;6.074;2023-03-04T12:28:37;4.63;;;1.40;;
17618;SDS011;8928;51.678;6.074;2023-03-04T12:31:38;2.57;;;1.23;;
17618;SDS011;8928;51.678;6.074;2023-03-04T12:34:32;4.13;;;1.30;;
17618;SDS011;8928;51.678;6.074;2023-03-04T12:37:30;2.73;;;1.00;;
17618;SDS011;8928;51.678;6.074;2023-03-04T12:40:31;5.40;;;1.23;;
17618;SDS011;8928;51.678;6.074;2023-03-04T12:43:31;1.90;;;0.90;;
17618;SDS011;8928;51.678;6.074;2023-03-04T12:49:37;2.47;;;1.10;;
17618;SDS011;8928;51.678;6.074;2023-03-04T12:52:42;4.33;;;1.17;;
17618;SDS011;8928;51.678;6.074;2023-03-04T12:55:37;1.70;;;1.10;;
17618;SDS011;8928;51.678;6.074;2023-03-04T12:58:26;8.27;;;2.60;;
17618;SDS011;8928;51.678;6.074;2023-03-04T13:01:15;6.00;;;2.47;;
17618;SDS011;8928;51.678;6.074;2023-03-04T13:04:10;4.70;;;1.60;;
17618;SDS011;8928;51.678;6.074;2023-03-04T13:07:07;4.97;;;1.87;;
17618;SDS011;8928;51.678;6.074;2023-03-04T13:09:57;3.13;;;1.20;;
17618;SDS011;8928;51.678;6.074;2023-03-04T13:12:51;1.83;;;1.07;;
17618;SDS011;8928;51.678;6.074;2023-03-04T13:15:39;3.00;;;1.20;;
17618;SDS011;8928;51.678;6.074;2023-03-04T13:18:30;5.37;;;1.27;;
17618;SDS011;8928;51.678;6.074;2023-03-04T13:21:23;3.50;;;1.23;;
17618;SDS011;8928;51.678;6.074;2023-03-04T13:27:44;3.83;;;2.00;;
17618;SDS011;8928;51.678;6.074;2023-03-04T13:30:40;2.60;;;1.20;;
17618;SDS011;8928;51.678;6.074;2023-03-04T13:37:26;3.47;;;1.80;;
17618;SDS011;8928;51.678;6.074;2023-03-04T13:40:33;2.77;;;1.37;;
17618;SDS011;8928;51.678;6.074;2023-03-04T13:43:25;5.07;;;1.60;;
17618;SDS011;8928;51.678;6.074;2023-03-04T13:49:27;2.50;;;1.50;;
17618;SDS011;8928;51.678;6.074;2023-03-04T13:55:36;3.87;;;1.10;;
17618;SDS011;8928;51.678;6.074;2023-03-04T13:58:24;4.00;;;1.30;;
17618;SDS011;8928;51.678;6.074;2023-03-04T14:01:19;5.77;;;1.87;;
17618;SDS011;8928;51.678;6.074;2023-03-04T14:04:12;4.70;;;0.90;;
17618;SDS011;8928;51.678;6.074;2023-03-04T14:07:03;7.77;;;1.17;;
17618;SDS011;8928;51.678;6.074;2023-03-04T14:10:06;7.07;;;1.70;;
17618;SDS011;8928;51.678;6.074;2023-03-04T14:13:07;7.40;;;1.60;;
17618;SDS011;8928;51.678;6.074;2023-03-04T14:15:55;4.70;;;0.90;;
17618;SDS011;8928;51.678;6.074;2023-03-04T14:18:43;7.17;;;1.30;;
17618;SDS011;8928;51.678;6.074;2023-03-04T14:21:30;9.63;;;1.27;;
17618;SDS011;8928;51.678;6.074;2023-03-04T14:24:18;6.30;;;1.00;;
17618;SDS011;8928;51.678;6.074;2023-03-04T14:27:11;6.33;;;1.10;;
17618;SDS011;8928;51.678;6.074;2023-03-04T14:29:59;8.43;;;1.20;;
17618;SDS011;8928;51.678;6.074;2023-03-04T14:32:48;8.27;;;1.17;;
17618;SDS011;8928;51.678;6.074;2023-03-04T14:35:36;10.03;;;1.17;;
17618;SDS011;8928;51.678;6.074;2023-03-04T14:38:24;11.33;;;1.60;;
17618;SDS011;8928;51.678;6.074;2023-03-04T14:41:14;8.93;;;1.37;;
17618;SDS011;8928;51.678;6.074;2023-03-04T14:44:06;5.97;;;1.20;;
17618;SDS011;8928;51.678;6.074;2023-03-04T14:46:58;9.47;;;1.60;;
17618;SDS011;8928;51.678;6.074;2023-03-04T14:49:51;9.73;;;1.50;;
17618;SDS011;8928;51.678;6.074;2023-03-04T14:52:39;7.93;;;1.30;;
17618;SDS011;8928;51.678;6.074;2023-03-04T14:55:28;10.13;;;1.30;;
17618;SDS011;8928;51.678;6.074;2023-03-04T14:58:18;9.17;;;1.30;;
17618;SDS011;8928;51.678;6.074;2023-03-04T15:01:13;14.13;;;1.67;;
17618;SDS011;8928;51.678;6.074;2023-03-04T15:04:03;7.33;;;1.40;;
17618;SDS011;8928;51.678;6.074;2023-03-04T15:06:52;9.23;;;1.60;;
17618;SDS011;8928;51.678;6.074;2023-03-04T15:09:39;13.83;;;1.77;;
17618;SDS011;8928;51.678;6.074;2023-03-04T15:12:27;9.60;;;1.43;;
17618;SDS011;8928;51.678;6.074;2023-03-04T15:15:33;12.97;;;1.60;;
17618;SDS011;8928;51.678;6.074;2023-03-04T15:18:27;9.73;;;1.50;;
17618;SDS011;8928;51.678;6.074;2023-03-04T15:21:27;9.10;;;1.50;;
17618;SDS011;8928;51.678;6.074;2023-03-04T15:24:21;10.30;;;1.23;;
17618;SDS011;8928;51.678;6.074;2023-03-04T15:27:09;13.30;;;1.40;;
17618;SDS011;8928;51.678;6.074;2023-03-04T15:29:58;11.50;;;1.33;;
17618;SDS011;8928;51.678;6.074;2023-03-04T15:32:46;10.90;;;1.40;;
17618;SDS011;8928;51.678;6.074;2023-03-04T15:35:35;11.03;;;1.27;;
17618;SDS011;8928;51.678;6.074;2023-03-04T15:38:22;8.63;;;1.30;;
17618;SDS011;8928;51.678;6.074;2023-03-04T15:41:10;8.23;;;1.40;;
17618;SDS011;8928;51.678;6.074;2023-03-04T15:43:59;8.67;;;1.50;;
17618;SDS011;8928;51.678;6.074;2023-03-04T15:46:46;10.50;;;1.73;;
17618;SDS011;8928;51.678;6.074;2023-03-04T15:49:33;12.80;;;1.53;;
17618;SDS011;8928;51.678;6.074;2023-03-04T15:52:22;14.53;;;1.40;;
17618;SDS011;8928;51.678;6.074;2023-03-04T15:55:12;10.20;;;1.97;;
17618;SDS011;8928;51.678;6.074;2023-03-04T15:58:01;9.27;;;1.60;;
17618;SDS011;8928;51.678;6.074;2023-03-04T16:00:49;11.73;;;1.43;;
17618;SDS011;8928;51.678;6.074;2023-03-04T16:03:36;10.10;;;1.23;;
17618;SDS011;8928;51.678;6.074;2023-03-04T16:06:23;16.43;;;1.60;;
17618;SDS011;8928;51.678;6.074;2023-03-04T16:09:14;5.80;;;1.30;;
17618;SDS011;8928;51.678;6.074;2023-03-04T16:12:04;6.97;;;1.27;;
17618;SDS011;8928;51.678;6.074;2023-03-04T16:14:51;8.97;;;1.53;;
17618;SDS011;8928;51.678;6.074;2023-03-04T16:17:39;8.07;;;1.50;;
17618;SDS011;8928;51.678;6.074;2023-03-04T16:20:28;5.97;;;1.20;;
17618;SDS011;8928;51.678;6.074;2023-03-04T16:23:16;5.80;;;1.10;;
17618;SDS011;8928;51.678;6.074;2023-03-04T16:26:10;12.80;;;3.70;;
17618;SDS011;8928;51.678;6.074;2023-03-04T16:28:59;6.03;;;1.47;;
17618;SDS011;8928;51.678;6.074;2023-03-04T16:31:47;2.90;;;1.20;;
17618;SDS011;8928;51.678;6.074;2023-03-04T16:34:34;9.07;;;1.60;;
17618;SDS011;8928;51.678;6.074;2023-03-04T16:37:21;5.53;;;1.60;;
17618;SDS011;8928;51.678;6.074;2023-03-04T16:40:10;10.40;;;3.03;;
17618;SDS011;8928;51.678;6.074;2023-03-04T16:43:00;7.80;;;2.40;;
17618;SDS011;8928;51.678;6.074;2023-03-04T16:45:48;5.93;;;1.10;;
17618;SDS011;8928;51.678;6.074;2023-03-04T16:48:35;4.17;;;0.80;;
17618;SDS011;8928;51.678;6.074;2023-03-04T16:51:22;7.53;;;1.70;;
17618;SDS011;8928;51.678;6.074;2023-03-04T16:54:11;4.03;;;1.20;;
17618;SDS011;8928;51.678;6.074;2023-03-04T16:57:02;5.10;;;0.93;;
17618;SDS011;8928;51.678;6.074;2023-03-04T16:59:50;4.37;;;1.10;;
17618;SDS011;8928;51.678;6.074;2023-03-04T17:02:39;3.17;;;0.90;;
17618;SDS011;8928;51.678;6.074;2023-03-04T17:05:27;5.27;;;1.03;;
17618;SDS011;8928;51.678;6.074;2023-03-04T17:08:16;8.73;;;1.20;;
17618;SDS011;8928;51.678;6.074;2023-03-04T17:11:03;7.63;;;1.10;;
17618;SDS011;8928;51.678;6.074;2023-03-04T17:13:50;5.27;;;1.10;;
17618;SDS011;8928;51.678;6.074;2023-03-04T17:16:39;8.97;;;1.50;;
17618;SDS011;8928;51.678;6.074;2023-03-04T17:19:26;9.53;;;1.20;;
17618;SDS011;8928;51.678;6.074;2023-03-04T17:22:13;9.97;;;1.50;;
17618;SDS011;8928;51.678;6.074;2023-03-04T17:25:00;11.13;;;1.17;;
17618;SDS011;8928;51.678;6.074;2023-03-04T17:27:48;9.00;;;1.37;;